Latest Coastal Weather Observations for King Island Airport

IDV60701

Issued at 11:42 am EST Monday 26 June 2017 (issued every 10 minutes, with the page automatically refreshed every 10 minutes)

About coastal observations | Map of coastal stations | Coastal observations for VIC | Marine services | Other Formats
Station Details ID: 098017 Name: KING ISLAND AIRPORT Lat: -39.88 Lon: 143.88 Height: 37.0 m
Data from the previous 72 hours. | See also: Recent months at King Island Airport
Date/Time
EST
Temp
°C
Wind Pressure Rain since
9am
mm
Weather Cloud Vis
km
Sea
Height
m
Swell
Dir  Spd
kts
Gust
kts
hPa Trend Height
m
Period
s
Dir
26/11:30am 11.3 W 1 4 1023.5 - 0.0 - Partly cloudy 10 - - - -
26/11:00am 11.5 S 9 13 1023.6 - 0.0 - Partly cloudy 10 - - - -
26/10:30am 11.2 WSW 10 15 1023.2 - 0.0 - Partly cloudy 10 - - - -
26/10:00am 11.3 SW 9 12 1022.9 - 0.0 - Partly cloudy 10 - - - -
26/09:30am 9.5 WSW 7 9 1022.6 - 0.0 - Partly cloudy 10 - - - -
26/09:00am 9.1 WSW 7 9 1022.1 - 2.6 Rain Cloudy 10 - - - -
26/08:30am 8.4 SSW 7 9 1021.6 - 2.6 - Partly cloudy 10 - - - -
26/08:00am 9.5 SSW 8 12 1021.3 - 2.2 - Partly cloudy 10 - - - -
26/07:30am 8.7 SSW 7 10 1020.9 - 2.2 - Partly cloudy 10 - - - -
26/07:00am 9.2 WSW 9 15 1020.8 - 2.2 - Partly cloudy 10 - - - -
26/06:30am 8.8 SW 8 10 1020.4 - 2.2 - Partly cloudy 10 - - - -
26/06:00am 8.9 SW 8 10 1020.0 - 2.2 - Mostly cloudy 10 - - - -
26/05:30am 8.9 SW 8 13 1019.7 - 2.2 - Partly cloudy 10 - - - -
26/05:00am 9.1 SSW 11 15 1019.4 - 2.2 - Partly cloudy 10 - - - -
26/04:30am 9.7 SW 10 14 1019.1 - 2.2 - Partly cloudy 10 - - - -
26/04:00am 9.9 WSW 9 12 1019.0 - 2.2 - Partly cloudy 10 - - - -
26/03:30am 10.1 SW 12 18 1018.7 - 2.2 - Partly cloudy 10 - - - -
26/03:00am 10.2 SW 11 17 1018.5 - 2.2 - Mostly cloudy 10 - - - -
26/02:30am 9.6 SW 11 16 1018.3 - 2.2 - Partly cloudy 10 - - - -
26/02:00am 9.7 SW 13 18 1017.9 - 2.2 - Partly cloudy 10 - - - -
26/01:30am 10.1 SW 13 17 1017.6 - 2.2 - Partly cloudy 10 - - - -
26/01:00am 10.0 SW 13 18 1017.4 - 2.2 - Partly cloudy 10 - - - -
26/12:30am 9.9 SW 12 16 1017.4 - 2.2 - Partly cloudy 10 - - - -
26/12:00am 10.1 SW 14 20 1017.2 - 2.2 - Cloudy 10 - - - -
 
Date/Time
EST
Temp
°C
Wind Pressure Rain since
9am
mm
Weather Cloud Vis
km
Sea
Height
m
Swell
Dir  Spd
kts
Gust
kts
hPa Trend Height
m
Period
s
Dir
25/11:30pm 9.2 SW 10 14 1017.0 - 2.2 - Partly cloudy 10 - - - -
25/11:00pm 10.0 SW 12 17 1016.9 - 2.2 - Partly cloudy 10 - - - -
25/10:30pm 10.3 SW 15 20 1016.5 - 2.2 - Partly cloudy 10 - - - -
25/10:00pm 9.7 SW 13 17 1016.3 - 2.2 - Partly cloudy 10 - - - -
25/09:30pm 10.5 WSW 17 23 1016.1 - 2.0 - Partly cloudy 10 - - - -
25/09:00pm 10.5 SW 12 16 1015.6 - 2.0 Drizzle Mostly cloudy 10 - - - -
25/08:40pm 11.2 WSW 15 26 1015.4 - 2.0 - Partly cloudy 10 - - - -
25/08:30pm 10.8 SW 13 18 1015.2 - 2.0 - Partly cloudy 10 - - - -
25/08:00pm 10.8 SW 14 18 1014.9 - 2.0 - Partly cloudy 10 - - - -
25/07:30pm 11.1 WSW 14 18 1014.4 - 2.0 - Partly cloudy 10 - - - -
25/07:00pm 10.9 SW 15 20 1014.1 - 2.0 - Partly cloudy 10 - - - -
25/06:30pm 11.2 WSW 16 22 1013.6 - 2.0 - Partly cloudy 10 - - - -
25/06:00pm 11.0 SW 16 23 1013.1 - 2.0 - Mostly cloudy 10 - - - -
25/05:30pm 11.2 SW 16 21 1012.8 - 2.0 - Partly cloudy 10 - - - -
25/05:00pm 11.5 WSW 17 22 1012.3 - 2.0 - Partly cloudy 10 - - - -
25/04:38pm 11.2 WSW 17 27 1012.1 - 2.0 - Partly cloudy 10 - - - -
25/04:30pm 11.4 WSW 19 27 1012.0 - 2.0 - Partly cloudy 10 - - - -
25/04:00pm 11.8 WSW 18 26 1011.4 - 2.0 - Partly cloudy 10 - - - -
25/03:41pm 12.0 WSW 19 29 1011.3 - 2.0 - Partly cloudy 10 - - - -
25/03:30pm 11.8 WSW 18 27 1011.2 - 2.0 - Partly cloudy 10 - - - -
25/03:00pm 11.8 WSW 19 28 1010.9 - 2.0 Rain Cloudy 10 - - - -
25/02:44pm 11.7 WSW 17 30 1010.8 - 2.0 - Partly cloudy 10 - - - -
25/02:30pm 11.4 WSW 20 29 1010.7 - 2.0 - Partly cloudy 10 - - - -
25/02:29pm 11.4 WSW 19 29 1010.7 - 2.0 - Partly cloudy 10 - - - -
25/02:28pm 11.3 WSW 20 29 1010.7 - 2.0 - Partly cloudy 10 - - - -
25/02:14pm 10.6 WSW 24 35 1010.7 - 2.0 - Partly cloudy 5 - - - -
25/02:00pm 11.8 WSW 20 30 1010.3 - 1.8 - Partly cloudy 10 - - - -
25/01:58pm 11.7 WSW 20 30 1010.4 - 1.8 - Partly cloudy 10 - - - -
25/01:44pm 11.7 W 17 25 1010.3 - 1.8 - Partly cloudy 10 - - - -
25/01:35pm 11.0 W 17 26 1010.3 - 1.8 - Partly cloudy 10 - - - -
25/01:32pm 11.0 W 17 26 1010.4 - 1.6 - Partly cloudy 10 - - - -
25/01:30pm 11.1 W 18 26 1010.4 - 1.6 - Partly cloudy 10 - - - -
25/01:19pm 10.8 W 19 29 1010.5 - 1.6 - Partly cloudy 4 - - - -
25/01:16pm 10.9 W 20 29 1010.5 - 1.6 - Partly cloudy 5 - - - -
25/01:05pm 11.0 W 21 31 1010.4 - 1.0 - Partly cloudy 10 - - - -
25/01:03pm 10.6 W 21 31 1010.4 - 1.0 - Partly cloudy 9 - - - -
25/01:00pm 10.5 W 22 31 1010.3 - 1.0 - Partly cloudy 8 - - - -
25/12:43pm 10.8 W 24 36 1010.6 - 0.2 - Partly cloudy 5 - - - -
25/12:32pm 12.4 WNW 24 35 1010.3 - 0.2 - Partly cloudy 10 - - - -
25/12:30pm 12.5 WNW 23 32 1010.3 - 0.2 - Partly cloudy 10 - - - -
25/12:06pm 12.3 W 20 30 1010.5 - 0.0 - Partly cloudy 9 - - - -
25/12:00pm 11.8 WNW 21 30 1010.6 - 0.0 Showers Cloudy 8 - - - -
25/11:54am 12.4 WNW 20 30 1010.6 - 0.0 - Partly cloudy 10 - - - -
25/11:30am 12.3 WNW 25 33 1011.0 - 0.0 - Partly cloudy 10 - - - -
25/11:00am 12.1 WNW 27 34 1011.2 - 0.0 - Partly cloudy 10 - - - -
25/10:36am 12.1 WNW 22 34 1011.3 - 0.0 - Partly cloudy 10 - - - -
25/10:30am 11.7 WNW 21 28 1011.4 - 0.0 - Partly cloudy 10 - - - -
25/10:06am 11.4 WNW 23 37 1011.5 - 0.0 - Partly cloudy 10 - - - -
25/10:00am 11.9 WNW 23 31 1011.4 - 0.0 - Partly cloudy 10 - - - -
25/09:36am 11.4 WNW 23 33 1011.2 - 0.0 - Partly cloudy 10 - - - -
25/09:30am 11.6 WNW 22 29 1011.3 - 0.0 - Partly cloudy 10 - - - -
25/09:00am 11.4 WNW 21 26 1011.3 - 4.2 Showers Cloudy 10 - - - -
25/08:30am 10.8 WNW 23 30 1011.4 - 4.0 - Partly cloudy 10 - - - -
25/08:02am 10.5 WNW 21 31 1011.7 - 4.0 - Partly cloudy 10 - - - -
25/08:00am 10.7 WNW 22 31 1011.7 - 3.8 - Partly cloudy 10 - - - -
25/07:36am 10.4 WNW 19 25 1011.6 - 3.8 - Partly cloudy 10 - - - -
25/07:30am 10.2 WNW 18 24 1011.6 - 3.8 - Partly cloudy 10 - - - -
25/07:20am 9.3 WNW 22 33 1011.6 - 3.8 - Partly cloudy 5 - - - -
25/07:16am 10.2 WNW 20 31 1011.7 - 3.4 - Partly cloudy 10 - - - -
25/07:00am 10.2 WNW 20 27 1011.6 - 3.4 - Partly cloudy 10 - - - -
25/06:47am 10.8 WNW 21 31 1011.6 - 3.4 - Partly cloudy 10 - - - -
25/06:30am 10.1 WNW 19 26 1011.5 - 3.4 - Partly cloudy 10 - - - -
25/06:00am 10.0 WNW 18 24 1011.4 - 3.4 Showers Cloudy 10 - - - -
25/05:54am 10.1 WNW 18 23 1011.5 - 3.4 - Partly cloudy 10 - - - -
25/05:41am 9.6 WNW 19 29 1011.7 - 3.2 - Partly cloudy 5 - - - -
25/05:38am 9.6 WNW 20 29 1011.7 - 3.2 - Partly cloudy 5 - - - -
25/05:31am 9.9 WNW 16 26 1011.6 - 3.2 - Partly cloudy 10 - - - -
25/05:30am 9.8 WNW 16 23 1011.6 - 3.2 - Partly cloudy 10 - - - -
25/05:00am 10.1 WNW 18 22 1011.8 - 3.2 - Partly cloudy 10 - - - -
25/04:38am 9.3 W 15 21 1011.9 - 3.2 - Partly cloudy 10 - - - -
25/04:30am 9.1 W 16 24 1011.9 - 3.2 - Partly cloudy 7 - - - -
25/04:19am 8.9 WNW 20 31 1012.2 - 3.0 - Partly cloudy 5 - - - -
25/04:14am 9.7 WNW 17 28 1012.0 - 2.4 - Partly cloudy 10 - - - -
25/04:00am 10.1 WNW 17 25 1012.1 - 2.4 - Partly cloudy 10 - - - -
25/03:30am 9.5 WNW 17 24 1012.4 - 2.4 - Partly cloudy 10 - - - -
25/03:06am 9.4 WNW 16 19 1012.6 - 2.4 - Partly cloudy 10 - - - -
25/03:00am 9.1 WNW 16 23 1012.7 - 2.4 Showers Cloudy 8 - - - -
25/02:58am 9.1 WNW 17 27 1012.8 - 2.4 - Partly cloudy 6 - - - -
25/02:56am 9.1 WNW 18 27 1012.8 - 2.4 - Partly cloudy 5 - - - -
25/02:30am 10.0 WNW 16 22 1012.9 - 2.2 - Partly cloudy 10 - - - -
25/02:00am 9.7 WNW 16 24 1013.1 - 2.2 - Partly cloudy 10 - - - -
25/01:30am 9.7 WNW 18 25 1013.1 - 2.2 - Partly cloudy 10 - - - -
25/01:25am 9.7 WNW 15 25 1013.1 - 2.2 - Partly cloudy 10 - - - -
25/01:00am 9.5 WNW 16 21 1013.2 - 2.2 - Partly cloudy 10 - - - -
25/12:42am 9.7 WNW 19 29 1013.4 - 2.2 - Partly cloudy 10 - - - -
25/12:30am 9.7 WNW 16 21 1013.4 - 2.2 - Partly cloudy 10 - - - -
25/12:00am 9.8 WNW 17 24 1013.6 - 2.2 - Cloudy 10 - - - -
 
Date/Time
EST
Temp
°C
Wind Pressure Rain since
9am
mm
Weather Cloud Vis
km
Sea
Height
m
Swell
Dir  Spd
kts
Gust
kts
hPa Trend Height
m
Period
s
Dir
24/11:30pm 10.0 WNW 16 21 1014.0 - 2.2 - Partly cloudy 10 - - - -
24/11:00pm 9.6 WNW 17 21 1014.2 - 2.2 - Partly cloudy 10 - - - -
24/10:30pm 9.6 WNW 15 22 1014.5 - 2.2 - Partly cloudy 10 - - - -
24/10:00pm 9.0 WNW 18 28 1014.7 - 2.2 - Partly cloudy 9 - - - -
24/09:56pm 9.3 WNW 16 27 1014.7 - 2.2 - Partly cloudy 10 - - - -
24/09:30pm 9.4 WNW 13 17 1014.9 - 2.0 - Partly cloudy 10 - - - -
24/09:00pm 8.8 WNW 18 26 1015.1 - 2.0 Rain Cloudy 10 - - - -
24/08:50pm 9.0 WNW 15 25 1015.1 - 2.0 - Partly cloudy 10 - - - -
24/08:39pm 8.4 NW 9 12 1015.2 - 2.0 - Partly cloudy 10 - - - -
24/08:30pm 8.2 WNW 14 21 1015.4 - 2.0 - Partly cloudy 6 - - - -
24/08:22pm 8.6 WNW 16 21 1015.6 - 1.8 - Partly cloudy 5 - - - -
24/08:00pm 9.2 WNW 12 16 1015.3 - 1.2 - Partly cloudy 10 - - - -
24/07:30pm 9.5 W 13 17 1015.4 - 1.2 - Partly cloudy 10 - - - -
24/07:00pm 9.1 W 11 15 1015.4 - 1.2 - Partly cloudy 10 - - - -
24/06:37pm 9.0 WNW 16 22 1015.4 - 1.2 - Partly cloudy 10 - - - -
24/06:30pm 9.2 WNW 15 19 1015.4 - 1.2 - Partly cloudy 8 - - - -
24/06:24pm 8.8 WNW 18 26 1015.5 - 1.2 - Partly cloudy 5 - - - -
24/06:08pm 9.9 WNW 16 26 1015.4 - 0.6 - Partly cloudy 10 - - - -
24/06:00pm 9.7 WNW 15 20 1015.4 - 0.6 - Cloudy 10 - - - -
24/05:30pm 9.9 W 14 17 1015.6 - 0.6 - Partly cloudy 10 - - - -
24/05:00pm 9.6 W 13 18 1015.5 - 0.6 - Partly cloudy 10 - - - -
24/04:30pm 9.6 W 14 18 1015.4 - 0.6 - Partly cloudy 10 - - - -
24/04:00pm 9.6 WSW 13 18 1015.5 - 0.6 - Partly cloudy 10 - - - -
24/03:43pm 9.2 WSW 13 21 1015.6 - 0.6 - Partly cloudy 10 - - - -
24/03:30pm 8.7 W 17 24 1015.8 - 0.6 - Partly cloudy 5 - - - -
24/03:29pm 8.6 W 17 24 1015.8 - 0.4 - Partly cloudy 5 - - - -
24/03:00pm 10.5 W 14 20 1015.5 - 0.4 - Cloudy 10 - - - -
24/02:30pm 10.2 W 15 20 1015.6 - 0.4 - Partly cloudy 10 - - - -
24/02:00pm 9.7 W 15 20 1015.6 - 0.4 - Partly cloudy 10 - - - -
24/01:30pm 10.0 W 15 22 1015.8 - 0.4 - Partly cloudy 10 - - - -
24/01:04pm 9.8 WSW 10 16 1016.0 - 0.4 - Partly cloudy 10 - - - -
24/01:00pm 9.1 WSW 12 19 1016.1 - 0.4 - Partly cloudy 9 - - - -
24/12:51pm 8.9 W 18 24 1016.3 - 0.2 - Partly cloudy 5 - - - -
24/12:30pm 11.3 W 15 22 1016.2 - 0.0 - Partly cloudy 10 - - - -
24/12:00pm 9.7 W 14 20 1016.6 - 0.0 - Cloudy 10 - - - -
24/11:30am 9.9 WSW 12 17 1017.0 - 0.0 - Partly cloudy 10 - - - -
24/11:00am 10.8 WSW 13 20 1017.2 - 0.0 - Partly cloudy 10 - - - -
24/10:30am 9.1 W 9 14 1017.4 - 0.0 - Partly cloudy 10 - - - -
24/10:00am 8.5 WSW 16 24 1017.4 - 0.0 - Partly cloudy 8 - - - -
24/09:30am 9.1 WSW 14 21 1017.1 - 0.0 - Partly cloudy 10 - - - -
24/09:00am 10.2 WSW 12 19 1016.9 - 2.2 - Partly cloudy 10 - - - -
24/08:30am 8.9 SW 10 17 1016.7 - 2.2 - Partly cloudy 10 - - - -
24/08:00am 8.8 WSW 11 17 1016.4 - 2.2 - Partly cloudy 10 - - - -
24/07:30am 8.8 WSW 16 20 1016.4 - 2.2 - Partly cloudy 10 - - - -
24/07:00am 8.1 SW 11 14 1015.9 - 2.2 - Partly cloudy 10 - - - -
24/06:41am 8.4 SW 15 26 1015.8 - 2.2 - Partly cloudy 10 - - - -
24/06:30am 8.2 WSW 8 12 1015.6 - 2.2 - Partly cloudy 10 - - - -
24/06:00am 8.2 WSW 13 18 1015.5 - 2.2 - Partly cloudy 10 - - - -
24/05:30am 7.7 SW 9 14 1015.2 - 2.2 - Partly cloudy 10 - - - -
24/05:00am 7.4 SSW 13 18 1015.1 - 2.2 - Partly cloudy 10 - - - -
24/04:30am 7.7 SW 9 14 1014.8 - 2.2 - Partly cloudy 10 - - - -
24/04:00am 8.7 SW 16 26 1014.9 - 2.2 - Partly cloudy 10 - - - -
24/03:57am 8.8 SW 15 26 1014.9 - 2.2 - Partly cloudy 10 - - - -
24/03:30am 8.6 SW 14 18 1015.0 - 2.2 - Partly cloudy 10 - - - -
24/03:00am 8.3 SW 15 21 1014.9 - 2.2 - Mostly cloudy 10 - - - -
24/02:34am 8.8 WSW 15 26 1014.7 - 2.2 - Partly cloudy 10 - - - -
24/02:30am 9.0 WSW 13 17 1014.7 - 2.2 - Partly cloudy 10 - - - -
24/02:00am 8.5 SW 12 16 1014.6 - 2.2 - Partly cloudy 10 - - - -
24/01:30am 8.8 WSW 13 18 1014.3 - 2.2 - Partly cloudy 10 - - - -
24/01:00am 8.8 SW 15 24 1014.2 - 2.0 - Partly cloudy 10 - - - -
24/12:30am 8.7 SW 13 20 1014.0 - 2.0 - Partly cloudy 10 - - - -
24/12:00am 8.8 SW 15 19 1014.0 - 2.0 - Mostly clear 10 - - - -
 
Date/Time
EST
Temp
°C
Wind Pressure Rain since
9am
mm
Weather Cloud Vis
km
Sea
Height
m
Swell
Dir  Spd
kts
Gust
kts
hPa Trend Height
m
Period
s
Dir
23/11:30pm 9.3 SW 15 22 1013.8 - 2.0 - Partly cloudy 10 - - - -
23/11:05pm 9.3 SW 16 26 1013.7 - 2.0 - Partly cloudy 10 - - - -
23/11:00pm 9.4 SW 17 25 1013.6 - 2.0 - Partly cloudy 10 - - - -
23/10:41pm 9.3 SW 17 27 1013.5 - 2.0 - Partly cloudy 10 - - - -
23/10:30pm 9.1 SW 20 28 1013.4 - 2.0 - Partly cloudy 10 - - - -
23/10:11pm 9.1 SW 17 27 1013.3 - 2.0 - Partly cloudy 10 - - - -
23/10:00pm 9.5 SW 18 24 1013.2 - 2.0 - Partly cloudy 10 - - - -
23/09:34pm 9.7 WSW 17 27 1013.2 - 2.0 - Partly cloudy 10 - - - -
23/09:30pm 9.5 SW 19 27 1013.2 - 2.0 - Partly cloudy 10 - - - -
23/09:03pm 9.6 SW 20 30 1012.8 - 2.0 - Partly cloudy 10 - - - -
23/09:00pm 9.8 SW 21 30 1012.8 - 2.0 Drizzle Cloudy 10 - - - -
23/08:30pm 9.6 SW 18 28 1012.4 - 2.0 - Partly cloudy 10 - - - -
23/08:21pm 9.4 SW 17 28 1012.2 - 2.0 - Partly cloudy 10 - - - -
23/08:00pm 9.1 SW 19 24 1011.9 - 2.0 - Partly cloudy 10 - - - -
23/07:30pm 9.2 SW 18 25 1011.6 - 2.0 - Partly cloudy 10 - - - -
23/07:23pm 9.0 SW 19 27 1011.4 - 2.0 - Partly cloudy 10 - - - -
23/07:00pm 9.5 SW 21 29 1011.2 - 1.8 - Partly cloudy 10 - - - -
23/06:44pm 9.8 SW 21 29 1011.0 - 1.8 - Partly cloudy 10 - - - -
23/06:30pm 10.3 SW 19 29 1010.6 - 1.8 - Partly cloudy 10 - - - -
23/06:18pm 10.8 SW 18 29 1010.6 - 1.8 - Partly cloudy 10 - - - -
23/06:00pm 10.9 SW 20 27 1010.1 - 1.8 Showers Cloudy 10 - - - -
23/05:33pm 11.5 WSW 18 28 1009.6 - 1.8 - Partly cloudy 10 - - - -
23/05:30pm 11.4 WSW 18 23 1009.5 - 1.8 - Partly cloudy 10 - - - -
23/05:03pm 12.4 WSW 19 29 1009.3 - 1.8 - Partly cloudy 10 - - - -
23/05:00pm 12.3 WSW 21 29 1009.3 - 1.8 - Partly cloudy 10 - - - -
23/04:35pm 11.8 WSW 19 29 1009.1 - 1.8 - Partly cloudy 10 - - - -
23/04:30pm 11.6 WSW 21 29 1009.2 - 1.8 - Partly cloudy 10 - - - -
23/04:17pm 11.4 WSW 21 30 1009.2 - 1.8 - Partly cloudy 8 - - - -
23/04:05pm 11.5 WSW 19 31 1009.1 - 1.6 - Partly cloudy 5 - - - -
23/04:03pm 11.7 W 18 31 1009.1 - 1.6 - Partly cloudy 6 - - - -
23/04:00pm 11.6 W 16 31 1009.0 - 1.4 - Partly cloudy 6 - - - -
23/03:45pm 11.8 W 21 30 1009.1 - 1.0 - Partly cloudy 5 - - - -
23/03:43pm 12.0 W 22 30 1009.2 - 0.8 - Partly cloudy 5 - - - -
23/03:39pm 12.5 W 24 31 1009.1 - 0.0 - Partly cloudy 10 - - - -
23/03:30pm 14.3 WNW 24 33 1008.7 - 0.0 - Partly cloudy 10 - - - -
23/03:10pm 14.3 WNW 23 33 1008.8 - 0.0 - Partly cloudy 10 - - - -
23/03:00pm 14.2 WNW 23 29 1009.0 - 0.0 - Cloudy 10 - - - -
23/02:30pm 14.0 WNW 24 29 1009.3 - 0.0 - Partly cloudy 10 - - - -
23/02:00pm 14.4 WNW 24 31 1009.4 - 0.0 - Partly cloudy 10 - - - -
23/01:30pm 14.1 NW 23 31 1009.8 - 0.0 - Partly cloudy 10 - - - -
23/01:00pm 13.9 NW 25 33 1010.0 - 0.0 - Partly cloudy 10 - - - -
23/12:30pm 14.0 NW 25 30 1010.6 - 0.0 - Partly cloudy 10 - - - -
23/12:00pm 14.1 NW 27 32 1011.2 - 0.0 - Cloudy 10 - - - -

Other Formats:

Comma delimited format used in spreadsheet applications
http://www.bom.gov.au/fwo/IDV60701/IDV60701.94850.axf

JavaScript Object Notation format (JSON) in row-major order
http://www.bom.gov.au/fwo/IDV60701/IDV60701.94850.json